Mermaid Vantage — 9V8386 — position and weather

sailwx.info

Track history (hours):
 
Tides and Currents Weather Stations Pressure Air Temp Water Temp Dewpoint Dewpoint Depression Visibility Wind Speed Wind Dir Waves Ship Positions

Mermaid Vantage

Last reported at 2018-Feb-28 20:17 UTC. Time now 2018-Jun-18 09:47 UTC.
Position S 27°06' E 153°30'.
Warning: this ship's position is months out of date.

Length 59 m; draft 4.8 m.

Type: Tug. MMSI: 565903000.

Date/timePositionNaut miles runAvg speedWind from/ knotsBaromVisibWave heightAir tempDewpointWater temp
2018-Feb-28 20:17S 27°06' E 153°30'310.5
2018-Feb-28 19:58S 27°09' E 153°30'5 9.9
2018-Feb-28 19:29S 27°14' E 153°30'5 9.8
2018-Feb-28 19:01S 27°18' E 153°33'9 8.9
2018-Feb-28 18:02S 27°26' E 153°35'810.5
2018-Feb-28 17:16S 27°34' E 153°34'310.8
2018-Feb-28 17:00S 27°37' E 153°33'510.5
2018-Feb-28 16:31S 27°42' E 153°33'510.9
2018-Feb-28 16:00S 27°48' E 153°32'611.5
2018-Feb-28 15:31S 27°54' E 153°32'611.4
2018-Feb-28 15:01S 27°59' E 153°31'510.9
2018-Feb-28 14:31S 28°04' E 153°34'510.7
2018-Feb-28 14:01S 28°09' E 153°37'5 9.9
2018-Feb-28 13:30S 28°13' E 153°39'5 9.9
2018-Feb-28 13:00S 28°18' E 153°39'510.0
2018-Feb-28 12:30S 28°23' E 153°38'510.5
2018-Feb-28 12:00S 28°28' E 153°37'5 9.6
2018-Feb-28 11:29S 28°33' E 153°38'251 9.7
2018-Feb-27 09:42S 32°37' E 152°28'210.0
2018-Feb-27 09:27S 32°39' E 152°26'4 9.6
2018-Feb-27 09:01S 32°41' E 152°22'5 9.5
2018-Feb-27 08:30S 32°44' E 152°17'5 9.4
2018-Feb-27 08:00S 32°47' E 152°13'5 9.1
2018-Feb-27 07:31S 32°50' E 152°09'4 8.9
2018-Feb-27 07:01S 32°53' E 152°05'4 8.4
2018-Feb-27 06:31S 32°56' E 152°01'4 8.5
2018-Feb-27 06:01S 32°59' E 151°57'4 8.8
2018-Feb-27 05:30S 33°02' E 151°54'40 9.4
2018-Feb-27 01:17S 33°36' E 151°29'310.2
2018-Feb-27 00:57S 33°39' E 151°28'510.1
2018-Feb-27 00:29S 33°44' E 151°26'510.1
2018-Feb-27 00:01S 33°48' E 151°24'  
2018-Feb-24 13:15S 39°03' E 148°05'1 2.0
2018-Feb-24 12:50S 39°03' E 148°06'1 2.2
2018-Feb-24 12:29S 39°03' E 148°08'5 1.9
2018-Feb-24 09:59S 39°01' E 148°13'56 2.7
2018-Feb-23 13:30S 38°19' E 147°25'0 0.4
2018-Feb-23 13:00S 38°19' E 147°26'1 1.3
2018-Feb-23 12:30S 38°18' E 147°26'2 4.1
2018-Feb-23 12:00S 38°17' E 147°28'2 4.1
2018-Feb-23 11:24S 38°15' E 147°30'2 3.8
2018-Feb-23 11:00S 38°14' E 147°32'2 4.0
2018-Feb-23 10:30S 38°13' E 147°34'3 5.1
2018-Feb-23 10:00S 38°11' E 147°36'14 3.3
2018-Feb-23 05:46S 38°19' E 147°21'1 2.3
2018-Feb-23 05:27S 38°19' E 147°21'9 1.9
2018-Feb-23 00:46S 38°12' E 147°28'1 5.1
2018-Feb-23 00:30S 38°13' E 147°27'3 5.1
2018-Feb-23 00:00S 38°15' E 147°24'5 3.9
2018-Feb-22 22:50S 38°18' E 147°20'6 2.8
2018-Feb-22 20:37S 38°14' E 147°26'3 4.6
2018-Feb-22 20:03S 38°13' E 147°28'0 4.7
2018-Feb-22 20:00S 38°12' E 147°29'2 4.8
2018-Feb-22 19:30S 38°11' E 147°31'1 2.7
2018-Feb-22 19:00S 38°10' E 147°32'1 1.3
2018-Feb-22 18:30S 38°10' E 147°33'0 1.0
2018-Feb-22 18:00S 38°10' E 147°34'2 4.1
2018-Feb-22 17:30S 38°12' E 147°33'2 4.6
2018-Feb-22 17:00S 38°14' E 147°32'2 4.3
2018-Feb-22 16:30S 38°15' E 147°30'2 4.3
2018-Feb-22 16:00S 38°17' E 147°28'2 3.6
2018-Feb-22 15:30S 38°18' E 147°26'2 3.2
2018-Feb-22 15:00S 38°19' E 147°25'1 2.6
2018-Feb-22 14:30S 38°20' E 147°23'0 0.7
2018-Feb-22 14:00S 38°20' E 147°23'1 2.3
2018-Feb-22 13:30S 38°19' E 147°23'2 4.2
2018-Feb-22 13:00S 38°17' E 147°24'2 4.4
2018-Feb-22 12:30S 38°15' E 147°26'2 4.3
2018-Feb-22 12:00S 38°14' E 147°28'2 4.3
2018-Feb-22 11:30S 38°12' E 147°30'2 4.2
2018-Feb-22 11:00S 38°11' E 147°32'1 1.9
2018-Feb-22 10:30S 38°10' E 147°32'0 0.4
2018-Feb-22 10:00S 38°10' E 147°32'3 4.5
2018-Feb-22 09:27S 38°12' E 147°29'2 4.4
2018-Feb-22 09:00S 38°13' E 147°27'2 4.7
2018-Feb-22 08:30S 38°14' E 147°25'2 4.5
2018-Feb-22 08:00S 38°16' E 147°23'2 4.7
2018-Feb-22 07:30S 38°17' E 147°21'2 4.4
2018-Feb-22 07:00S 38°19' E 147°19'1 1.6
2018-Feb-22 06:30S 38°19' E 147°18'0 0.6
2018-Feb-22 06:00S 38°20' E 147°18'0 0.5
2018-Feb-22 05:30S 38°20' E 147°19'3 6.6
2018-Feb-22 05:00S 38°17' E 147°22'3 5.0
2018-Feb-22 04:30S 38°16' E 147°24'3 5.0
2018-Feb-22 04:00S 38°14' E 147°26'2 4.4
2018-Feb-22 03:30S 38°12' E 147°28'1 1.5
2018-Feb-22 03:00S 38°12' E 147°29'0 0.1
2018-Feb-22 02:22S 38°12' E 147°29'0 0.2
2018-Feb-22 02:00S 38°12' E 147°29'3 5.6
2018-Feb-22 01:30S 38°14' E 147°26'3 5.1
2018-Feb-22 01:00S 38°16' E 147°24'2 4.6
2018-Feb-22 00:30S 38°17' E 147°22'2 4.2
2018-Feb-22 00:00S 38°19' E 147°20'0 0.5
2018-Feb-21 23:29S 38°19' E 147°20'0 0.6
2018-Feb-21 22:59S 38°19' E 147°19'1 1.1
2018-Feb-21 22:30S 38°20' E 147°19'2 4.2
2018-Feb-21 21:59S 38°18' E 147°21'2 3.6
2018-Feb-21 21:30S 38°17' E 147°23'2 3.8
2018-Feb-21 21:00S 38°15' E 147°24'2 4.0
2018-Feb-21 20:30S 38°14' E 147°26'2 3.7
2018-Feb-21 20:00S 38°13' E 147°28'1 1.1
2018-Feb-21 19:30S 38°12' E 147°28'2 4.6
2018-Feb-21 19:00S 38°12' E 147°31'1 2.9
2018-Feb-21 18:30S 38°12' E 147°33'1 2.4
2018-Feb-21 18:00S 38°11' E 147°34'0 0.9
2018-Feb-21 17:29S 38°11' E 147°35'1 3.0
2018-Feb-21 16:58S 38°12' E 147°34'2 3.7
2018-Feb-21 16:30S 38°14' E 147°32'2 4.1
2018-Feb-21 16:00S 38°15' E 147°30'2 3.9
2018-Feb-21 15:30S 38°16' E 147°28'2 3.9
2018-Feb-21 14:59S 38°18' E 147°27'2 3.4
2018-Feb-21 14:29S 38°19' E 147°25'1 2.9
2018-Feb-21 13:59S 38°19' E 147°23'0 0.8
2018-Feb-21 13:28S 38°20' E 147°23'1 2.4
2018-Feb-21 13:00S 38°19' E 147°23'2 4.3
2018-Feb-21 12:27S 38°16' E 147°24'2 4.6
2018-Feb-21 12:00S 38°15' E 147°26'3 4.5
2018-Feb-21 11:26S 38°13' E 147°28'2 4.3
2018-Feb-21 11:00S 38°12' E 147°30'2 3.4
2018-Feb-21 10:23S 38°10' E 147°32'1 2.1
2018-Feb-21 09:59S 38°10' E 147°33'1 1.5
2018-Feb-21 09:30S 38°10' E 147°33'1 2.8
2018-Feb-21 08:58S 38°11' E 147°34'2 4.8
2018-Feb-21 08:30S 38°13' E 147°33'2 4.8
2018-Feb-21 07:59S 38°15' E 147°30'2 4.7
2018-Feb-21 07:30S 38°16' E 147°28'3 4.9
2018-Feb-21 06:59S 38°18' E 147°26'2 4.6
2018-Feb-21 06:30S 38°20' E 147°24'3 6.6
2018-Feb-21 06:00S 38°20' E 147°19'10 4.5
2018-Feb-21 03:43S 38°11' E 147°27'1 3.8
2018-Feb-21 03:26S 38°12' E 147°28'2 3.8
2018-Feb-21 02:58S 38°14' E 147°27'0 0.2
2018-Feb-21 02:29S 38°14' E 147°27'0 0.8
2018-Feb-21 01:59S 38°13' E 147°27'5 0.6
2018-Feb-20 18:18S 38°10' E 147°32'4 7.1
2018-Feb-20 17:48S 38°14' E 147°31'1 3.9
2018-Feb-20 17:30S 38°15' E 147°30'2 3.5
2018-Feb-20 16:53S 38°16' E 147°28'1 3.5
2018-Feb-20 16:30S 38°17' E 147°27'2 3.1
2018-Feb-20 15:57S 38°18' E 147°25'2 2.1
2018-Feb-20 14:58S 38°19' E 147°23'  
Track history (hours):
 
Tides and Currents Weather Stations Pressure Air Temp Water Temp Dewpoint Dewpoint Depression Visibility Wind Speed Wind Dir Waves Ship Positions

Mermaid Vantage

Last reported at 2018-Feb-28 20:17 UTC. Time now 2018-Jun-18 09:47 UTC.
Position S 27°06' E 153°30'.
Warning: this ship's position is months out of date.

Length 59 m; draft 4.8 m.

Type: Tug. MMSI: 565903000.

Date/timePositionNaut miles runAvg speedWind from/ knotsBaromVisibWave heightAir tempDewpointWater temp
2018-Feb-28 20:17S 27°06' E 153°30'310.5
2018-Feb-28 19:58S 27°09' E 153°30'5 9.9
2018-Feb-28 19:29S 27°14' E 153°30'5 9.8
2018-Feb-28 19:01S 27°18' E 153°33'9 8.9
2018-Feb-28 18:02S 27°26' E 153°35'810.5
2018-Feb-28 17:16S 27°34' E 153°34'310.8
2018-Feb-28 17:00S 27°37' E 153°33'510.5
2018-Feb-28 16:31S 27°42' E 153°33'510.9
2018-Feb-28 16:00S 27°48' E 153°32'611.5
2018-Feb-28 15:31S 27°54' E 153°32'611.4
2018-Feb-28 15:01S 27°59' E 153°31'510.9
2018-Feb-28 14:31S 28°04' E 153°34'510.7
2018-Feb-28 14:01S 28°09' E 153°37'5 9.9
2018-Feb-28 13:30S 28°13' E 153°39'5 9.9
2018-Feb-28 13:00S 28°18' E 153°39'510.0
2018-Feb-28 12:30S 28°23' E 153°38'510.5
2018-Feb-28 12:00S 28°28' E 153°37'5 9.6
2018-Feb-28 11:29S 28°33' E 153°38'251 9.7
2018-Feb-27 09:42S 32°37' E 152°28'210.0
2018-Feb-27 09:27S 32°39' E 152°26'4 9.6
2018-Feb-27 09:01S 32°41' E 152°22'5 9.5
2018-Feb-27 08:30S 32°44' E 152°17'5 9.4
2018-Feb-27 08:00S 32°47' E 152°13'5 9.1
2018-Feb-27 07:31S 32°50' E 152°09'4 8.9
2018-Feb-27 07:01S 32°53' E 152°05'4 8.4
2018-Feb-27 06:31S 32°56' E 152°01'4 8.5
2018-Feb-27 06:01S 32°59' E 151°57'4 8.8
2018-Feb-27 05:30S 33°02' E 151°54'40 9.4
2018-Feb-27 01:17S 33°36' E 151°29'310.2
2018-Feb-27 00:57S 33°39' E 151°28'510.1
2018-Feb-27 00:29S 33°44' E 151°26'510.1
2018-Feb-27 00:01S 33°48' E 151°24'  
2018-Feb-24 13:15S 39°03' E 148°05'1 2.0
2018-Feb-24 12:50S 39°03' E 148°06'1 2.2
2018-Feb-24 12:29S 39°03' E 148°08'5 1.9
2018-Feb-24 09:59S 39°01' E 148°13'56 2.7
2018-Feb-23 13:30S 38°19' E 147°25'0 0.4
2018-Feb-23 13:00S 38°19' E 147°26'1 1.3
2018-Feb-23 12:30S 38°18' E 147°26'2 4.1
2018-Feb-23 12:00S 38°17' E 147°28'2 4.1
2018-Feb-23 11:24S 38°15' E 147°30'2 3.8
2018-Feb-23 11:00S 38°14' E 147°32'2 4.0
2018-Feb-23 10:30S 38°13' E 147°34'3 5.1
2018-Feb-23 10:00S 38°11' E 147°36'14 3.3
2018-Feb-23 05:46S 38°19' E 147°21'1 2.3
2018-Feb-23 05:27S 38°19' E 147°21'9 1.9
2018-Feb-23 00:46S 38°12' E 147°28'1 5.1
2018-Feb-23 00:30S 38°13' E 147°27'3 5.1
2018-Feb-23 00:00S 38°15' E 147°24'5 3.9
2018-Feb-22 22:50S 38°18' E 147°20'6 2.8
2018-Feb-22 20:37S 38°14' E 147°26'3 4.6
2018-Feb-22 20:03S 38°13' E 147°28'0 4.7
2018-Feb-22 20:00S 38°12' E 147°29'2 4.8
2018-Feb-22 19:30S 38°11' E 147°31'1 2.7
2018-Feb-22 19:00S 38°10' E 147°32'1 1.3
2018-Feb-22 18:30S 38°10' E 147°33'0 1.0
2018-Feb-22 18:00S 38°10' E 147°34'2 4.1
2018-Feb-22 17:30S 38°12' E 147°33'2 4.6
2018-Feb-22 17:00S 38°14' E 147°32'2 4.3
2018-Feb-22 16:30S 38°15' E 147°30'2 4.3
2018-Feb-22 16:00S 38°17' E 147°28'2 3.6
2018-Feb-22 15:30S 38°18' E 147°26'2 3.2
2018-Feb-22 15:00S 38°19' E 147°25'1 2.6
2018-Feb-22 14:30S 38°20' E 147°23'0 0.7
2018-Feb-22 14:00S 38°20' E 147°23'1 2.3
2018-Feb-22 13:30S 38°19' E 147°23'2 4.2
2018-Feb-22 13:00S 38°17' E 147°24'2 4.4
2018-Feb-22 12:30S 38°15' E 147°26'2 4.3
2018-Feb-22 12:00S 38°14' E 147°28'2 4.3
2018-Feb-22 11:30S 38°12' E 147°30'2 4.2
2018-Feb-22 11:00S 38°11' E 147°32'1 1.9
2018-Feb-22 10:30S 38°10' E 147°32'0 0.4
2018-Feb-22 10:00S 38°10' E 147°32'3 4.5
2018-Feb-22 09:27S 38°12' E 147°29'2 4.4
2018-Feb-22 09:00S 38°13' E 147°27'2 4.7
2018-Feb-22 08:30S 38°14' E 147°25'2 4.5
2018-Feb-22 08:00S 38°16' E 147°23'2 4.7
2018-Feb-22 07:30S 38°17' E 147°21'2 4.4
2018-Feb-22 07:00S 38°19' E 147°19'1 1.6
2018-Feb-22 06:30S 38°19' E 147°18'0 0.6
2018-Feb-22 06:00S 38°20' E 147°18'0 0.5
2018-Feb-22 05:30S 38°20' E 147°19'3 6.6
2018-Feb-22 05:00S 38°17' E 147°22'3 5.0
2018-Feb-22 04:30S 38°16' E 147°24'3 5.0
2018-Feb-22 04:00S 38°14' E 147°26'2 4.4
2018-Feb-22 03:30S 38°12' E 147°28'1 1.5
2018-Feb-22 03:00S 38°12' E 147°29'0 0.1
2018-Feb-22 02:22S 38°12' E 147°29'0 0.2
2018-Feb-22 02:00S 38°12' E 147°29'3 5.6
2018-Feb-22 01:30S 38°14' E 147°26'3 5.1
2018-Feb-22 01:00S 38°16' E 147°24'2 4.6
2018-Feb-22 00:30S 38°17' E 147°22'2 4.2
2018-Feb-22 00:00S 38°19' E 147°20'0 0.5
2018-Feb-21 23:29S 38°19' E 147°20'0 0.6
2018-Feb-21 22:59S 38°19' E 147°19'1 1.1
2018-Feb-21 22:30S 38°20' E 147°19'2 4.2
2018-Feb-21 21:59S 38°18' E 147°21'2 3.6
2018-Feb-21 21:30S 38°17' E 147°23'2 3.8
2018-Feb-21 21:00S 38°15' E 147°24'2 4.0
2018-Feb-21 20:30S 38°14' E 147°26'2 3.7
2018-Feb-21 20:00S 38°13' E 147°28'1 1.1
2018-Feb-21 19:30S 38°12' E 147°28'2 4.6
2018-Feb-21 19:00S 38°12' E 147°31'1 2.9
2018-Feb-21 18:30S 38°12' E 147°33'1 2.4
2018-Feb-21 18:00S 38°11' E 147°34'0 0.9
2018-Feb-21 17:29S 38°11' E 147°35'1 3.0
2018-Feb-21 16:58S 38°12' E 147°34'2 3.7
2018-Feb-21 16:30S 38°14' E 147°32'2 4.1
2018-Feb-21 16:00S 38°15' E 147°30'2 3.9
2018-Feb-21 15:30S 38°16' E 147°28'2 3.9
2018-Feb-21 14:59S 38°18' E 147°27'2 3.4
2018-Feb-21 14:29S 38°19' E 147°25'1 2.9
2018-Feb-21 13:59S 38°19' E 147°23'0 0.8
2018-Feb-21 13:28S 38°20' E 147°23'1 2.4
2018-Feb-21 13:00S 38°19' E 147°23'2 4.3
2018-Feb-21 12:27S 38°16' E 147°24'2 4.6
2018-Feb-21 12:00S 38°15' E 147°26'3 4.5
2018-Feb-21 11:26S 38°13' E 147°28'2 4.3
2018-Feb-21 11:00S 38°12' E 147°30'2 3.4
2018-Feb-21 10:23S 38°10' E 147°32'1 2.1
2018-Feb-21 09:59S 38°10' E 147°33'1 1.5
2018-Feb-21 09:30S 38°10' E 147°33'1 2.8
2018-Feb-21 08:58S 38°11' E 147°34'2 4.8
2018-Feb-21 08:30S 38°13' E 147°33'2 4.8
2018-Feb-21 07:59S 38°15' E 147°30'2 4.7
2018-Feb-21 07:30S 38°16' E 147°28'3 4.9
2018-Feb-21 06:59S 38°18' E 147°26'2 4.6
2018-Feb-21 06:30S 38°20' E 147°24'3 6.6
2018-Feb-21 06:00S 38°20' E 147°19'10 4.5
2018-Feb-21 03:43S 38°11' E 147°27'1 3.8
2018-Feb-21 03:26S 38°12' E 147°28'2 3.8
2018-Feb-21 02:58S 38°14' E 147°27'0 0.2
2018-Feb-21 02:29S 38°14' E 147°27'0 0.8
2018-Feb-21 01:59S 38°13' E 147°27'5 0.6
2018-Feb-20 18:18S 38°10' E 147°32'4 7.1
2018-Feb-20 17:48S 38°14' E 147°31'1 3.9
2018-Feb-20 17:30S 38°15' E 147°30'2 3.5
2018-Feb-20 16:53S 38°16' E 147°28'1 3.5
2018-Feb-20 16:30S 38°17' E 147°27'2 3.1
2018-Feb-20 15:57S 38°18' E 147°25'2 2.1
2018-Feb-20 14:58S 38°19' E 147°23'  

Dump ship's entire track history